sensor_id;sensor_type;location;lat;lon;timestamp;pressure;altitude;pressure_sealevel;temperature;humidity
6835;BME280;3455;42.150;24.734;2023-05-22T00:00:31;67614.44;;;21.34;66.41
6835;BME280;3455;42.150;24.734;2023-05-22T00:02:59;67668.47;;;21.14;67.70
6835;BME280;3455;42.150;24.734;2023-05-22T00:05:27;67605.78;;;21.15;67.68
6835;BME280;3455;42.150;24.734;2023-05-22T00:07:54;67688.97;;;21.36;66.45
6835;BME280;3455;42.150;24.734;2023-05-22T00:10:21;67614.59;;;21.12;67.31
6835;BME280;3455;42.150;24.734;2023-05-22T00:12:48;67610.25;;;20.94;67.63
6835;BME280;3455;42.150;24.734;2023-05-22T00:15:14;67655.75;;;21.07;67.98
6835;BME280;3455;42.150;24.734;2023-05-22T00:17:43;67686.34;;;21.48;66.38
6835;BME280;3455;42.150;24.734;2023-05-22T00:20:10;67670.88;;;21.48;65.54
6835;BME280;3455;42.150;24.734;2023-05-22T00:22:37;67706.00;;;21.56;65.43
6835;BME280;3455;42.150;24.734;2023-05-22T00:25:05;67662.50;;;21.31;66.62
6835;BME280;3455;42.150;24.734;2023-05-22T00:27:33;67622.75;;;21.19;66.71
6835;BME280;3455;42.150;24.734;2023-05-22T00:30:00;67604.44;;;20.89;67.49
6835;BME280;3455;42.150;24.734;2023-05-22T00:32:27;67634.31;;;21.09;67.43
6835;BME280;3455;42.150;24.734;2023-05-22T00:34:55;67588.22;;;21.11;67.04
6835;BME280;3455;42.150;24.734;2023-05-22T00:37:21;67641.22;;;21.10;67.42
6835;BME280;3455;42.150;24.734;2023-05-22T00:39:49;67619.66;;;21.07;68.13
6835;BME280;3455;42.150;24.734;2023-05-22T00:42:17;67657.19;;;21.22;67.31
6835;BME280;3455;42.150;24.734;2023-05-22T00:44:43;67674.91;;;21.35;66.81
6835;BME280;3455;42.150;24.734;2023-05-22T00:47:10;67603.03;;;21.22;66.75
6835;BME280;3455;42.150;24.734;2023-05-22T00:49:37;67608.19;;;21.06;67.42
6835;BME280;3455;42.150;24.734;2023-05-22T00:52:05;67633.06;;;21.19;66.94
6835;BME280;3455;42.150;24.734;2023-05-22T00:54:32;67675.91;;;21.27;66.98
6835;BME280;3455;42.150;24.734;2023-05-22T00:57:00;67641.22;;;21.26;66.76
6835;BME280;3455;42.150;24.734;2023-05-22T00:59:28;67640.72;;;21.30;66.19
6835;BME280;3455;42.150;24.734;2023-05-22T01:01:55;67661.41;;;21.03;67.45
6835;BME280;3455;42.150;24.734;2023-05-22T01:04:23;67575.50;;;21.20;66.82
6835;BME280;3455;42.150;24.734;2023-05-22T01:06:50;67668.56;;;21.46;66.05
6835;BME280;3455;42.150;24.734;2023-05-22T01:09:19;67733.78;;;21.71;65.68
6835;BME280;3455;42.150;24.734;2023-05-22T01:11:50;67806.53;;;21.67;65.06
6835;BME280;3455;42.150;24.734;2023-05-22T01:14:26;67722.81;;;21.66;65.04
6835;BME280;3455;42.150;24.734;2023-05-22T01:16:59;67691.69;;;21.57;65.50
6835;BME280;3455;42.150;24.734;2023-05-22T01:19:51;67698.56;;;21.58;66.00
6835;BME280;3455;42.150;24.734;2023-05-22T01:22:32;67680.13;;;21.51;66.37
6835;BME280;3455;42.150;24.734;2023-05-22T01:25:28;67691.00;;;21.52;65.75
6835;BME280;3455;42.150;24.734;2023-05-22T01:28:10;67715.88;;;21.49;66.12
6835;BME280;3455;42.150;24.734;2023-05-22T01:30:46;67677.41;;;21.31;66.73
6835;BME280;3455;42.150;24.734;2023-05-22T01:33:15;67655.34;;;21.16;67.39
6835;BME280;3455;42.150;24.734;2023-05-22T01:35:44;67642.72;;;21.14;67.33
6835;BME280;3455;42.150;24.734;2023-05-22T01:38:12;67665.34;;;21.29;66.25
6835;BME280;3455;42.150;24.734;2023-05-22T01:40:40;67634.47;;;21.02;66.94
6835;BME280;3455;42.150;24.734;2023-05-22T01:43:07;67611.09;;;21.09;66.76
6835;BME280;3455;42.150;24.734;2023-05-22T01:45:33;67600.63;;;20.99;66.98
6835;BME280;3455;42.150;24.734;2023-05-22T01:48:02;67601.78;;;21.00;67.16
6835;BME280;3455;42.150;24.734;2023-05-22T01:50:28;67613.00;;;20.88;67.99
6835;BME280;3455;42.150;24.734;2023-05-22T01:53:04;67619.03;;;20.75;68.29
6835;BME280;3455;42.150;24.734;2023-05-22T01:55:36;67617.56;;;20.87;68.13
6835;BME280;3455;42.150;24.734;2023-05-22T01:58:13;67606.94;;;21.00;67.30
6835;BME280;3455;42.150;24.734;2023-05-22T02:00:42;67591.31;;;20.91;67.87
6835;BME280;3455;42.150;24.734;2023-05-22T02:03:16;67623.16;;;21.10;66.63
6835;BME280;3455;42.150;24.734;2023-05-22T02:05:44;67647.03;;;21.31;66.04
6835;BME280;3455;42.150;24.734;2023-05-22T02:08:15;67688.00;;;21.45;66.05
6835;BME280;3455;42.150;24.734;2023-05-22T02:10:43;67675.91;;;21.27;66.33
6835;BME280;3455;42.150;24.734;2023-05-22T02:13:11;67593.38;;;20.79;67.85
6835;BME280;3455;42.150;24.734;2023-05-22T02:15:38;67633.69;;;20.92;68.01
6835;BME280;3455;42.150;24.734;2023-05-22T02:18:09;67622.59;;;21.10;67.63
6835;BME280;3455;42.150;24.734;2023-05-22T02:20:38;67600.75;;;20.77;69.12
6835;BME280;3455;42.150;24.734;2023-05-22T02:23:05;67617.63;;;20.76;69.23
6835;BME280;3455;42.150;24.734;2023-05-22T02:25:31;67587.44;;;20.70;69.19
6835;BME280;3455;42.150;24.734;2023-05-22T02:27:58;67607.81;;;20.72;69.34
6835;BME280;3455;42.150;24.734;2023-05-22T02:30:25;67600.44;;;20.90;68.19
6835;BME280;3455;42.150;24.734;2023-05-22T02:32:51;67649.81;;;20.97;67.92
6835;BME280;3455;42.150;24.734;2023-05-22T02:35:18;67632.53;;;20.91;68.25
6835;BME280;3455;42.150;24.734;2023-05-22T02:37:46;67641.53;;;21.13;66.92
6835;BME280;3455;42.150;24.734;2023-05-22T02:40:13;67618.03;;;20.83;68.03
6835;BME280;3455;42.150;24.734;2023-05-22T02:42:40;67603.09;;;20.79;68.05
6835;BME280;3455;42.150;24.734;2023-05-22T02:45:08;67580.66;;;20.73;68.21
6835;BME280;3455;42.150;24.734;2023-05-22T02:47:35;67620.69;;;20.72;68.80
6835;BME280;3455;42.150;24.734;2023-05-22T02:50:01;67559.84;;;20.64;68.49
6835;BME280;3455;42.150;24.734;2023-05-22T02:52:28;67611.81;;;20.71;68.09
6835;BME280;3455;42.150;24.734;2023-05-22T02:54:56;67633.69;;;20.92;67.78
6835;BME280;3455;42.150;24.734;2023-05-22T02:57:23;67638.88;;;21.08;66.95
6835;BME280;3455;42.150;24.734;2023-05-22T02:59:50;67658.66;;;21.10;67.05
6835;BME280;3455;42.150;24.734;2023-05-22T03:02:17;67568.50;;;20.67;68.64
6835;BME280;3455;42.150;24.734;2023-05-22T03:04:44;67621.13;;;20.79;67.84
6835;BME280;3455;42.150;24.734;2023-05-22T03:07:10;67610.66;;;20.86;67.73
6835;BME280;3455;42.150;24.734;2023-05-22T03:09:37;67629.22;;;20.97;67.20
6835;BME280;3455;42.150;24.734;2023-05-22T03:12:06;67622.41;;;21.00;67.09
6835;BME280;3455;42.150;24.734;2023-05-22T03:14:33;67640.84;;;21.08;66.59
6835;BME280;3455;42.150;24.734;2023-05-22T03:17:00;67632.03;;;20.95;67.38
6835;BME280;3455;42.150;24.734;2023-05-22T03:19:26;67602.38;;;21.01;67.39
6835;BME280;3455;42.150;24.734;2023-05-22T03:21:53;67633.28;;;21.01;67.33
6835;BME280;3455;42.150;24.734;2023-05-22T03:24:20;67637.94;;;21.05;67.39
6835;BME280;3455;42.150;24.734;2023-05-22T03:26:46;67653.53;;;21.10;67.38
6835;BME280;3455;42.150;24.734;2023-05-22T03:29:14;67632.16;;;21.16;67.24
6835;BME280;3455;42.150;24.734;2023-05-22T03:31:42;67640.78;;;21.03;67.16
6835;BME280;3455;42.150;24.734;2023-05-22T03:34:08;67642.28;;;21.07;67.12
6835;BME280;3455;42.150;24.734;2023-05-22T03:36:35;67680.31;;;21.33;66.39
6835;BME280;3455;42.150;24.734;2023-05-22T03:39:02;67726.63;;;21.56;65.15
6835;BME280;3455;42.150;24.734;2023-05-22T03:41:29;67647.19;;;21.09;66.65
6835;BME280;3455;42.150;24.734;2023-05-22T03:43:57;67679.81;;;21.37;65.52
6835;BME280;3455;42.150;24.734;2023-05-22T03:46:25;67689.47;;;21.32;65.82
6835;BME280;3455;42.150;24.734;2023-05-22T03:48:52;67659.78;;;21.38;65.41
6835;BME280;3455;42.150;24.734;2023-05-22T03:51:18;67661.22;;;21.53;65.17
6835;BME280;3455;42.150;24.734;2023-05-22T03:53:46;67698.19;;;21.67;64.65
6835;BME280;3455;42.150;24.734;2023-05-22T03:56:12;67694.84;;;21.73;64.73
6835;BME280;3455;42.150;24.734;2023-05-22T03:58:39;67656.41;;;21.12;65.86
6835;BME280;3455;42.150;24.734;2023-05-22T04:01:06;67850.09;;;21.15;66.45
6835;BME280;3455;42.150;24.734;2023-05-22T04:03:35;67676.75;;;21.42;65.86
6835;BME280;3455;42.150;24.734;2023-05-22T04:06:02;67685.22;;;21.35;65.56
6835;BME280;3455;42.150;24.734;2023-05-22T04:08:29;67709.09;;;21.41;65.00
6835;BME280;3455;42.150;24.734;2023-05-22T04:10:56;67713.53;;;21.47;65.05
6835;BME280;3455;42.150;24.734;2023-05-22T04:13:23;67681.28;;;21.52;64.42
6835;BME280;3455;42.150;24.734;2023-05-22T04:15:50;67727.13;;;21.68;64.06
6835;BME280;3455;42.150;24.734;2023-05-22T04:18:17;67719.50;;;21.72;63.72
6835;BME280;3455;42.150;24.734;2023-05-22T04:20:45;67716.84;;;21.84;63.48
6835;BME280;3455;42.150;24.734;2023-05-22T04:23:12;67682.09;;;21.51;64.37
6835;BME280;3455;42.150;24.734;2023-05-22T04:25:39;67686.81;;;21.44;64.88
6835;BME280;3455;42.150;24.734;2023-05-22T04:28:05;67650.88;;;21.21;65.39
6835;BME280;3455;42.150;24.734;2023-05-22T04:30:33;67735.66;;;21.77;64.04
6835;BME280;3455;42.150;24.734;2023-05-22T04:33:01;67763.41;;;22.04;63.86
6835;BME280;3455;42.150;24.734;2023-05-22T04:35:29;67750.81;;;21.91;63.21
6835;BME280;3455;42.150;24.734;2023-05-22T04:37:58;67701.81;;;21.48;64.62
6835;BME280;3455;42.150;24.734;2023-05-22T04:40:26;67717.06;;;21.66;64.60
6835;BME280;3455;42.150;24.734;2023-05-22T04:42:53;67751.78;;;21.83;63.94
6835;BME280;3455;42.150;24.734;2023-05-22T04:45:24;67731.97;;;21.65;64.40
6835;BME280;3455;42.150;24.734;2023-05-22T04:47:50;67720.25;;;21.39;65.46
6835;BME280;3455;42.150;24.734;2023-05-22T04:50:18;67647.19;;;21.09;66.96
6835;BME280;3455;42.150;24.734;2023-05-22T04:52:44;67675.66;;;21.29;66.39
6835;BME280;3455;42.150;24.734;2023-05-22T04:55:13;67748.31;;;21.80;64.80
6835;BME280;3455;42.150;24.734;2023-05-22T04:57:40;67690.69;;;21.65;65.31
6835;BME280;3455;42.150;24.734;2023-05-22T05:00:09;67718.00;;;21.85;65.08
6835;BME280;3455;42.150;24.734;2023-05-22T05:02:37;67786.91;;;22.34;64.07
6835;BME280;3455;42.150;24.734;2023-05-22T05:05:04;67882.78;;;22.96;61.82
6835;BME280;3455;42.150;24.734;2023-05-22T05:07:31;67790.47;;;22.26;62.82
6835;BME280;3455;42.150;24.734;2023-05-22T05:09:57;67812.50;;;22.36;62.50
6835;BME280;3455;42.150;24.734;2023-05-22T05:12:26;67906.72;;;23.01;60.68
6835;BME280;3455;42.150;24.734;2023-05-22T05:14:53;67870.69;;;22.78;60.72
6835;BME280;3455;42.150;24.734;2023-05-22T05:17:20;67864.00;;;22.59;60.76
6835;BME280;3455;42.150;24.734;2023-05-22T05:19:47;67727.97;;;21.98;62.59
6835;BME280;3455;42.150;24.734;2023-05-22T05:22:13;67752.47;;;22.04;62.78
6835;BME280;3455;42.150;24.734;2023-05-22T05:24:40;67835.59;;;22.59;61.17
6835;BME280;3455;42.150;24.734;2023-05-22T05:27:07;67815.97;;;22.39;61.38
6835;BME280;3455;42.150;24.734;2023-05-22T05:29:35;67889.19;;;22.85;60.30
6835;BME280;3455;42.150;24.734;2023-05-22T05:32:02;67867.84;;;22.80;59.77
6835;BME280;3455;42.150;24.734;2023-05-22T05:34:29;67913.41;;;23.20;59.38
6835;BME280;3455;42.150;24.734;2023-05-22T05:36:56;67933.44;;;23.47;58.88
6835;BME280;3455;42.150;24.734;2023-05-22T05:39:22;67935.13;;;23.44;58.20
6835;BME280;3455;42.150;24.734;2023-05-22T05:41:49;67988.34;;;23.63;57.95
6835;BME280;3455;42.150;24.734;2023-05-22T05:44:16;67971.50;;;23.53;57.88
6835;BME280;3455;42.150;24.734;2023-05-22T05:46:44;67972.41;;;23.40;58.48
6835;BME280;3455;42.150;24.734;2023-05-22T05:49:11;67914.50;;;23.32;58.87
6835;BME280;3455;42.150;24.734;2023-05-22T05:51:38;67933.50;;;23.36;58.65
6835;BME280;3455;42.150;24.734;2023-05-22T05:54:05;67898.91;;;23.12;59.19
6835;BME280;3455;42.150;24.734;2023-05-22T05:56:31;67876.78;;;23.13;59.39
6835;BME280;3455;42.150;24.734;2023-05-22T05:58:58;67915.50;;;23.24;59.55
6835;BME280;3455;42.150;24.734;2023-05-22T06:01:25;67871.88;;;23.11;60.61
6835;BME280;3455;42.150;24.734;2023-05-22T06:03:53;67951.78;;;23.45;60.59
6835;BME280;3455;42.150;24.734;2023-05-22T06:06:20;68022.59;;;24.12;57.95
6835;BME280;3455;42.150;24.734;2023-05-22T06:08:50;68123.41;;;24.77;55.99
6835;BME280;3455;42.150;24.734;2023-05-22T06:11:17;68206.84;;;25.37;54.59
6835;BME280;3455;42.150;24.734;2023-05-22T06:13:43;68233.53;;;25.47;53.66
6835;BME280;3455;42.150;24.734;2023-05-22T06:16:10;68287.59;;;26.03;51.36
6835;BME280;3455;42.150;24.734;2023-05-22T06:18:37;68353.16;;;26.56;50.00
6835;BME280;3455;42.150;24.734;2023-05-22T06:21:05;68350.16;;;26.49;49.53
6835;BME280;3455;42.150;24.734;2023-05-22T06:23:32;68338.53;;;27.00;49.03
6835;BME280;3455;42.150;24.734;2023-05-22T06:25:58;68533.69;;;28.05;45.39
6835;BME280;3455;42.150;24.734;2023-05-22T06:28:25;68796.16;;;29.79;40.00
6835;BME280;3455;42.150;24.734;2023-05-22T06:30:52;68885.91;;;30.35;36.66
6835;BME280;3455;42.150;24.734;2023-05-22T06:33:19;68868.31;;;30.08;37.22
6835;BME280;3455;42.150;24.734;2023-05-22T06:35:45;69038.94;;;31.18;35.00
6835;BME280;3455;42.150;24.734;2023-05-22T06:38:13;69178.63;;;31.89;34.30
6835;BME280;3455;42.150;24.734;2023-05-22T06:40:40;69231.72;;;32.31;33.51
6835;BME280;3455;42.150;24.734;2023-05-22T06:43:07;69189.84;;;31.99;32.72
6835;BME280;3455;42.150;24.734;2023-05-22T06:45:33;68999.66;;;30.97;33.72
6835;BME280;3455;42.150;24.734;2023-05-22T06:48:01;68880.44;;;30.21;34.84
6835;BME280;3455;42.150;24.734;2023-05-22T06:50:29;68923.63;;;30.72;35.44
6835;BME280;3455;42.150;24.734;2023-05-22T06:52:56;68890.59;;;30.39;35.78
6835;BME280;3455;42.150;24.734;2023-05-22T06:55:24;69002.41;;;31.07;35.69
6835;BME280;3455;42.150;24.734;2023-05-22T06:57:51;69101.56;;;31.81;33.97
6835;BME280;3455;42.150;24.734;2023-05-22T07:00:28;69244.97;;;32.40;31.16
6835;BME280;3455;42.150;24.734;2023-05-22T07:02:59;69314.03;;;32.75;31.45
6835;BME280;3455;42.150;24.734;2023-05-22T07:05:26;69206.38;;;32.34;32.05
6835;BME280;3455;42.150;24.734;2023-05-22T07:07:53;69433.06;;;33.51;31.56
6835;BME280;3455;42.150;24.734;2023-05-22T07:10:20;69398.53;;;33.44;30.30
6835;BME280;3455;42.150;24.734;2023-05-22T07:12:48;69572.53;;;34.12;29.88
6835;BME280;3455;42.150;24.734;2023-05-22T07:15:15;69491.34;;;33.79;30.14
6835;BME280;3455;42.150;24.734;2023-05-22T07:17:41;69550.56;;;34.30;29.81
6835;BME280;3455;42.150;24.734;2023-05-22T07:20:09;69617.19;;;34.65;29.34
6835;BME280;3455;42.150;24.734;2023-05-22T07:22:36;69674.31;;;34.87;29.50
6835;BME280;3455;42.150;24.734;2023-05-22T07:25:03;69375.75;;;33.47;29.80
6835;BME280;3455;42.150;24.734;2023-05-22T07:27:30;69241.66;;;32.55;31.08
6835;BME280;3455;42.150;24.734;2023-05-22T07:29:59;69175.34;;;32.05;31.60
6835;BME280;3455;42.150;24.734;2023-05-22T07:32:25;69177.78;;;32.11;30.25
6835;BME280;3455;42.150;24.734;2023-05-22T07:34:52;68926.63;;;30.79;32.33
6835;BME280;3455;42.150;24.734;2023-05-22T07:37:19;69105.50;;;31.71;30.20
6835;BME280;3455;42.150;24.734;2023-05-22T07:39:46;69368.94;;;33.18;28.02
6835;BME280;3455;42.150;24.734;2023-05-22T07:42:13;69567.97;;;34.18;26.75
6835;BME280;3455;42.150;24.734;2023-05-22T07:44:40;69479.84;;;33.91;27.33
6835;BME280;3455;42.150;24.734;2023-05-22T07:47:08;69393.56;;;33.46;27.62
6835;BME280;3455;42.150;24.734;2023-05-22T07:49:35;69686.75;;;34.98;25.72
6835;BME280;3455;42.150;24.734;2023-05-22T07:52:02;69501.47;;;33.92;27.00
6835;BME280;3455;42.150;24.734;2023-05-22T07:54:29;69544.50;;;34.16;25.84
6835;BME280;3455;42.150;24.734;2023-05-22T07:56:55;69369.00;;;33.23;27.88
6835;BME280;3455;42.150;24.734;2023-05-22T07:59:22;69322.03;;;33.05;27.62
6835;BME280;3455;42.150;24.734;2023-05-22T08:01:49;69281.38;;;32.78;28.18
6835;BME280;3455;42.150;24.734;2023-05-22T08:04:17;69369.63;;;33.23;27.82
6835;BME280;3455;42.150;24.734;2023-05-22T08:06:44;69440.56;;;33.85;26.17
6835;BME280;3455;42.150;24.734;2023-05-22T08:09:11;69839.47;;;35.61;23.97
6835;BME280;3455;42.150;24.734;2023-05-22T08:11:38;69830.75;;;35.67;23.85
6835;BME280;3455;42.150;24.734;2023-05-22T08:14:06;69739.84;;;35.21;23.03
6835;BME280;3455;42.150;24.734;2023-05-22T08:16:33;69477.47;;;33.69;25.41
6835;BME280;3455;42.150;24.734;2023-05-22T08:19:00;69302.06;;;32.96;27.20
6835;BME280;3455;42.150;24.734;2023-05-22T08:21:28;69690.72;;;34.87;24.04
6835;BME280;3455;42.150;24.734;2023-05-22T08:23:57;70049.25;;;36.97;21.70
6835;BME280;3455;42.150;24.734;2023-05-22T08:26:24;70156.38;;;37.69;21.63
6835;BME280;3455;42.150;24.734;2023-05-22T08:28:51;70240.31;;;37.75;20.96
6835;BME280;3455;42.150;24.734;2023-05-22T08:31:18;70240.94;;;38.16;20.80
6835;BME280;3455;42.150;24.734;2023-05-22T08:33:44;70173.59;;;37.58;20.99
6835;BME280;3455;42.150;24.734;2023-05-22T08:36:11;70493.56;;;39.29;20.13
6835;BME280;3455;42.150;24.734;2023-05-22T08:38:39;70403.13;;;38.74;20.50
6835;BME280;3455;42.150;24.734;2023-05-22T08:41:07;70011.16;;;36.85;21.29
6835;BME280;3455;42.150;24.734;2023-05-22T08:43:34;70185.50;;;37.69;20.97
6835;BME280;3455;42.150;24.734;2023-05-22T08:46:03;70026.50;;;36.68;22.03
6835;BME280;3455;42.150;24.734;2023-05-22T08:48:31;69892.56;;;36.21;21.70
6835;BME280;3455;42.150;24.734;2023-05-22T08:51:02;69854.25;;;35.90;22.17
6835;BME280;3455;42.150;24.734;2023-05-22T08:53:33;69895.72;;;36.17;22.63
6835;BME280;3455;42.150;24.734;2023-05-22T08:56:01;70195.28;;;37.54;21.75
6835;BME280;3455;42.150;24.734;2023-05-22T08:58:30;70223.91;;;38.00;21.14
6835;BME280;3455;42.150;24.734;2023-05-22T09:00:57;70412.63;;;38.78;20.22
6835;BME280;3455;42.150;24.734;2023-05-22T09:03:25;70430.38;;;38.84;20.08
6835;BME280;3455;42.150;24.734;2023-05-22T09:05:52;70280.72;;;38.01;21.84
6835;BME280;3455;42.150;24.734;2023-05-22T09:08:19;70405.59;;;38.81;20.68
6835;BME280;3455;42.150;24.734;2023-05-22T09:10:46;70402.59;;;38.78;20.54
6835;BME280;3455;42.150;24.734;2023-05-22T09:13:24;70278.84;;;37.94;21.03
6835;BME280;3455;42.150;24.734;2023-05-22T09:15:52;70402.69;;;38.83;20.19
6835;BME280;3455;42.150;24.734;2023-05-22T09:18:18;70487.91;;;39.06;20.08
6835;BME280;3455;42.150;24.734;2023-05-22T09:20:46;70504.25;;;39.13;21.04
6835;BME280;3455;42.150;24.734;2023-05-22T09:23:14;70161.28;;;37.62;21.26
6835;BME280;3455;42.150;24.734;2023-05-22T09:25:42;69947.34;;;36.36;22.98
6835;BME280;3455;42.150;24.734;2023-05-22T09:28:09;69967.97;;;36.40;22.35
6835;BME280;3455;42.150;24.734;2023-05-22T09:30:38;70220.06;;;37.98;21.60
6835;BME280;3455;42.150;24.734;2023-05-22T09:33:07;70169.06;;;37.52;21.16
6835;BME280;3455;42.150;24.734;2023-05-22T09:35:34;69719.63;;;35.44;23.08
6835;BME280;3455;42.150;24.734;2023-05-22T09:38:02;69799.09;;;35.67;22.96
6835;BME280;3455;42.150;24.734;2023-05-22T09:40:29;69861.31;;;35.92;22.53
6835;BME280;3455;42.150;24.734;2023-05-22T09:42:59;69690.50;;;35.15;23.85
6835;BME280;3455;42.150;24.734;2023-05-22T09:45:26;69772.56;;;35.58;24.18
6835;BME280;3455;42.150;24.734;2023-05-22T09:47:54;70051.56;;;36.94;21.02
6835;BME280;3455;42.150;24.734;2023-05-22T09:50:22;69931.03;;;36.45;21.23
6835;BME280;3455;42.150;24.734;2023-05-22T09:52:49;69771.94;;;35.53;22.43
6835;BME280;3455;42.150;24.734;2023-05-22T09:55:19;70011.84;;;36.69;22.74
6835;BME280;3455;42.150;24.734;2023-05-22T09:57:48;70067.63;;;37.08;22.28
6835;BME280;3455;42.150;24.734;2023-05-22T10:00:17;70021.91;;;36.73;21.83
6835;BME280;3455;42.150;24.734;2023-05-22T10:02:45;70062.75;;;37.15;21.55
6835;BME280;3455;42.150;24.734;2023-05-22T10:05:14;69921.59;;;36.41;21.54
6835;BME280;3455;42.150;24.734;2023-05-22T10:07:47;69852.66;;;36.23;22.12
6835;BME280;3455;42.150;24.734;2023-05-22T10:10:17;69867.44;;;36.11;22.61
6835;BME280;3455;42.150;24.734;2023-05-22T10:12:49;69584.06;;;34.61;23.95
6835;BME280;3455;42.150;24.734;2023-05-22T10:15:16;69648.78;;;35.06;23.32
6835;BME280;3455;42.150;24.734;2023-05-22T10:17:44;69953.94;;;36.47;21.96
6835;BME280;3455;42.150;24.734;2023-05-22T10:20:11;69935.97;;;36.63;21.72
6835;BME280;3455;42.150;24.734;2023-05-22T10:22:40;69963.25;;;36.61;21.59
6835;BME280;3455;42.150;24.734;2023-05-22T10:25:08;69996.50;;;36.65;21.81
6835;BME280;3455;42.150;24.734;2023-05-22T10:27:35;70058.75;;;37.05;19.79
6835;BME280;3455;42.150;24.734;2023-05-22T10:30:12;70023.72;;;37.00;20.28
6835;BME280;3455;42.150;24.734;2023-05-22T10:32:45;70333.06;;;38.36;18.96
6835;BME280;3455;42.150;24.734;2023-05-22T10:35:19;70248.53;;;37.73;20.17
6835;BME280;3455;42.150;24.734;2023-05-22T10:37:49;70478.69;;;39.21;19.23
6835;BME280;3455;42.150;24.734;2023-05-22T10:40:21;70426.56;;;39.03;17.71
6835;BME280;3455;42.150;24.734;2023-05-22T10:42:56;70618.78;;;39.77;17.13
6835;BME280;3455;42.150;24.734;2023-05-22T10:45:25;70354.16;;;38.68;18.71
6835;BME280;3455;42.150;24.734;2023-05-22T10:48:01;70274.22;;;38.20;19.05
6835;BME280;3455;42.150;24.734;2023-05-22T10:50:28;70141.44;;;37.31;20.29
6835;BME280;3455;42.150;24.734;2023-05-22T10:53:18;70464.09;;;39.31;18.73
6835;BME280;3455;42.150;24.734;2023-05-22T10:55:46;70696.81;;;40.21;17.77
6835;BME280;3455;42.150;24.734;2023-05-22T10:58:13;70484.53;;;39.37;18.24
6835;BME280;3455;42.150;24.734;2023-05-22T11:00:40;70482.75;;;39.36;18.35
6835;BME280;3455;42.150;24.734;2023-05-22T11:03:07;70581.66;;;39.82;17.39
6835;BME280;3455;42.150;24.734;2023-05-22T11:05:37;70629.53;;;39.86;17.34
6835;BME280;3455;42.150;24.734;2023-05-22T11:08:33;70736.31;;;40.55;16.08
6835;BME280;3455;42.150;24.734;2023-05-22T11:11:11;70359.56;;;38.78;18.11
6835;BME280;3455;42.150;24.734;2023-05-22T11:13:38;70320.94;;;38.53;17.77
6835;BME280;3455;42.150;24.734;2023-05-22T11:16:07;70175.97;;;37.81;18.67
6835;BME280;3455;42.150;24.734;2023-05-22T11:18:35;70035.75;;;37.19;19.02
6835;BME280;3455;42.150;24.734;2023-05-22T11:21:02;70063.66;;;37.18;18.78
6835;BME280;3455;42.150;24.734;2023-05-22T11:23:33;70239.94;;;37.88;18.23
6835;BME280;3455;42.150;24.734;2023-05-22T11:26:18;70239.44;;;37.97;18.75
6835;BME280;3455;42.150;24.734;2023-05-22T11:28:48;70086.25;;;37.38;18.54
6835;BME280;3455;42.150;24.734;2023-05-22T11:31:16;69915.13;;;36.40;19.25
6835;BME280;3455;42.150;24.734;2023-05-22T11:33:44;69773.75;;;35.59;19.88
6835;BME280;3455;42.150;24.734;2023-05-22T11:36:11;69731.66;;;35.23;20.50
6835;BME280;3455;42.150;24.734;2023-05-22T11:38:39;69560.94;;;34.82;21.14
6835;BME280;3455;42.150;24.734;2023-05-22T11:41:07;69427.94;;;33.81;21.96
6835;BME280;3455;42.150;24.734;2023-05-22T11:43:36;69344.22;;;33.26;22.39
6835;BME280;3455;42.150;24.734;2023-05-22T11:46:06;69302.06;;;32.96;24.16
6835;BME280;3455;42.150;24.734;2023-05-22T11:48:33;68704.44;;;29.40;34.57
6835;BME280;3455;42.150;24.734;2023-05-22T11:51:01;68477.22;;;28.24;38.68
6835;BME280;3455;42.150;24.734;2023-05-22T11:53:29;68460.97;;;27.82;39.73
6835;BME280;3455;42.150;24.734;2023-05-22T11:56:00;68307.31;;;26.79;47.45
6835;BME280;3455;42.150;24.734;2023-05-22T11:58:27;68279.69;;;26.30;51.31
6835;BME280;3455;42.150;24.734;2023-05-22T12:00:59;67979.72;;;24.65;52.19
6835;BME280;3455;42.150;24.734;2023-05-22T12:03:26;68091.63;;;25.09;51.50
6835;BME280;3455;42.150;24.734;2023-05-22T12:05:53;68094.94;;;24.98;54.70
6835;BME280;3455;42.150;24.734;2023-05-22T12:08:20;68177.47;;;25.75;54.34
6835;BME280;3455;42.150;24.734;2023-05-22T12:10:48;68177.84;;;25.61;48.21
6835;BME280;3455;42.150;24.734;2023-05-22T12:13:21;68188.16;;;25.93;48.65
6835;BME280;3455;42.150;24.734;2023-05-22T12:15:49;68261.41;;;26.26;50.23
6835;BME280;3455;42.150;24.734;2023-05-22T12:18:18;68275.47;;;26.38;50.36
6835;BME280;3455;42.150;24.734;2023-05-22T12:20:45;68310.03;;;26.68;52.38
6835;BME280;3455;42.150;24.734;2023-05-22T12:23:13;68324.69;;;26.81;50.06
6835;BME280;3455;42.150;24.734;2023-05-22T12:25:45;68371.72;;;26.95;49.53
6835;BME280;3455;42.150;24.734;2023-05-22T12:28:12;68468.03;;;27.52;49.90
6835;BME280;3455;42.150;24.734;2023-05-22T12:30:39;68402.56;;;27.45;48.58
6835;BME280;3455;42.150;24.734;2023-05-22T12:33:11;68303.50;;;26.58;49.44
6835;BME280;3455;42.150;24.734;2023-05-22T12:35:40;68357.66;;;26.83;53.25
6835;BME280;3455;42.150;24.734;2023-05-22T12:38:07;68338.38;;;26.70;52.63
6835;BME280;3455;42.150;24.734;2023-05-22T12:40:34;68302.31;;;26.57;52.24
6835;BME280;3455;42.150;24.734;2023-05-22T12:43:01;68317.94;;;26.57;53.89
6835;BME280;3455;42.150;24.734;2023-05-22T12:45:28;68251.47;;;26.17;53.52
6835;BME280;3455;42.150;24.734;2023-05-22T12:47:56;68248.28;;;26.37;55.20
6835;BME280;3455;42.150;24.734;2023-05-22T12:50:23;68309.72;;;26.50;51.16
6835;BME280;3455;42.150;24.734;2023-05-22T12:52:52;68409.97;;;26.17;50.69
6835;BME280;3455;42.150;24.734;2023-05-22T12:55:19;68275.25;;;26.60;51.67
6835;BME280;3455;42.150;24.734;2023-05-22T12:57:46;68328.63;;;26.75;48.85
6835;BME280;3455;42.150;24.734;2023-05-22T13:00:13;68207.94;;;26.01;54.23
6835;BME280;3455;42.150;24.734;2023-05-22T13:02:40;68300.00;;;26.55;52.33
6835;BME280;3455;42.150;24.734;2023-05-22T13:05:07;68403.06;;;27.04;50.38
6835;BME280;3455;42.150;24.734;2023-05-22T13:07:35;68549.09;;;28.27;48.13
6835;BME280;3455;42.150;24.734;2023-05-22T13:10:04;68719.91;;;29.26;46.90
6835;BME280;3455;42.150;24.734;2023-05-22T13:12:31;68697.91;;;29.30;44.31
6835;BME280;3455;42.150;24.734;2023-05-22T13:14:57;68952.63;;;30.65;41.55